Time;durP1;ratioP1;P1;durP2;ratioP2;P2;SDS_P1;SDS_P2;PMS_P1;PMS_P2;Temp;Humidity;BMP_temperature;BMP_pressure;BME280_temperature;BME280_humidity;BME280_pressure;Samples;Min_cycle;Max_cycle;Signal;HPM_P1;HPM_P2
2020/12/08 00:00:19;;;;;;;22.48;12.35;;;0.50;99.90;;;;;;5074180;28;20056;-64
2020/12/08 00:02:46;;;;;;;23.38;12.57;;;0.50;99.90;;;;;;5073628;28;20052;-64
2020/12/08 00:05:14;;;;;;;23.65;12.40;;;0.50;99.90;;;;;;5074334;28;20056;-64
2020/12/08 00:07:41;;;;;;;20.88;12.30;;;0.40;99.90;;;;;;5054733;28;20387;-64
2020/12/08 00:10:07;;;;;;;19.13;11.75;;;0.40;99.90;;;;;;5064179;28;20053;-64
2020/12/08 00:12:34;;;;;;;22.10;12.45;;;0.40;99.90;;;;;;5074290;28;20051;-64
2020/12/08 00:15:01;;;;;;;23.33;12.43;;;0.40;99.90;;;;;;5073265;28;20048;-64
2020/12/08 00:17:31;;;;;;;19.48;11.85;;;0.50;99.90;;;;;;5074264;28;20054;-64
2020/12/08 00:19:58;;;;;;;22.52;11.82;;;0.50;99.90;;;;;;5073996;28;20402;-64
2020/12/08 00:22:24;;;;;;;21.05;11.77;;;0.50;99.90;;;;;;5074278;28;20513;-64
2020/12/08 00:24:51;;;;;;;20.38;11.55;;;0.50;99.90;;;;;;5073415;28;20496;-64
2020/12/08 00:27:18;;;;;;;24.40;12.18;;;0.50;99.90;;;;;;5074173;28;20059;-64
2020/12/08 00:29:44;;;;;;;20.98;11.90;;;0.40;99.90;;;;;;5067445;28;20056;-64
2020/12/08 00:32:11;;;;;;;19.73;11.93;;;0.50;99.90;;;;;;5073574;28;20106;-64
2020/12/08 00:34:38;;;;;;;18.25;11.18;;;0.40;99.90;;;;;;5073434;28;20044;-64
2020/12/08 00:37:06;;;;;;;20.80;11.23;;;0.40;99.90;;;;;;5072743;28;20110;-64
2020/12/08 00:39:32;;;;;;;21.13;11.88;;;0.40;99.90;;;;;;5073734;28;20123;-64
2020/12/08 00:42:00;;;;;;;17.00;10.55;;;0.40;99.90;;;;;;5073194;28;20057;-64
2020/12/08 00:44:27;;;;;;;18.80;10.75;;;0.40;99.90;;;;;;5065556;28;20068;-64
2020/12/08 00:46:53;;;;;;;18.60;11.07;;;0.30;99.90;;;;;;5073899;28;20485;-64
2020/12/08 00:49:20;;;;;;;19.02;11.43;;;0.40;99.90;;;;;;5074031;28;20470;-64
2020/12/08 00:51:48;;;;;;;18.38;11.38;;;0.30;99.90;;;;;;5073579;28;20053;-64
2020/12/08 00:54:14;;;;;;;19.05;10.35;;;0.20;99.90;;;;;;5073168;28;20048;-64
2020/12/08 00:56:41;;;;;;;18.55;10.43;;;0.20;99.90;;;;;;5073452;28;20047;-64
2020/12/08 00:59:13;;;;;;;15.38;10.32;;;0.20;99.90;;;;;;5072755;28;20420;-64
2020/12/08 01:01:44;;;;;;;17.67;9.77;;;0.30;99.90;;;;;;5072749;28;21368;-64
2020/12/08 01:04:10;;;;;;;16.20;9.82;;;0.30;99.90;;;;;;5073519;28;20048;-64
2020/12/08 01:06:38;;;;;;;17.38;10.30;;;0.30;99.90;;;;;;5072671;28;20048;-64
2020/12/08 01:09:06;;;;;;;15.00;9.48;;;0.30;99.90;;;;;;5072825;28;20048;-64
2020/12/08 01:11:34;;;;;;;16.73;10.38;;;0.30;99.90;;;;;;5073369;28;20045;-64
2020/12/08 01:14:02;;;;;;;18.85;10.38;;;0.10;99.90;;;;;;5069861;28;20048;-64
2020/12/08 01:16:29;;;;;;;16.85;9.98;;;0.10;99.90;;;;;;5072679;28;20053;-64
2020/12/08 01:18:55;;;;;;;18.00;10.50;;;0.20;99.90;;;;;;5072904;28;20048;-64
2020/12/08 01:21:22;;;;;;;16.88;10.10;;;0.00;99.90;;;;;;5072230;28;20102;-64
2020/12/08 01:23:49;;;;;;;14.90;9.75;;;0.10;99.90;;;;;;5072899;28;20056;-64
2020/12/08 01:26:22;;;;;;;17.40;9.98;;;0.20;99.90;;;;;;5073389;28;20052;-64
2020/12/08 01:28:48;;;;;;;19.38;11.82;;;0.20;99.90;;;;;;5072926;28;20052;-64
2020/12/08 01:31:15;;;;;;;18.35;10.85;;;0.30;99.90;;;;;;5064229;28;20048;-64
2020/12/08 01:33:42;;;;;;;20.23;11.40;;;0.30;99.90;;;;;;5072512;28;20052;-64
2020/12/08 01:36:09;;;;;;;18.92;11.10;;;0.40;99.90;;;;;;5071182;28;20102;-64
2020/12/08 01:38:35;;;;;;;19.55;10.95;;;0.50;99.90;;;;;;5062085;28;20059;-64
2020/12/08 01:41:02;;;;;;;18.70;10.90;;;0.60;99.90;;;;;;5073018;28;20045;-64
2020/12/08 01:43:30;;;;;;;16.85;10.77;;;0.60;99.90;;;;;;5072559;28;20048;-64
2020/12/08 01:45:56;;;;;;;18.02;11.07;;;0.70;99.90;;;;;;5072683;28;20053;-64
2020/12/08 01:48:23;;;;;;;19.33;11.00;;;0.50;99.90;;;;;;5072032;28;20133;-64
2020/12/08 01:50:50;;;;;;;17.55;11.15;;;0.40;99.90;;;;;;5071865;28;20490;-64
2020/12/08 01:53:17;;;;;;;17.30;10.70;;;0.40;99.90;;;;;;5072325;28;20053;-64
2020/12/08 01:55:47;;;;;;;16.20;10.55;;;0.60;99.90;;;;;;5073098;28;20049;-64
2020/12/08 01:58:15;;;;;;;18.10;10.98;;;0.70;99.90;;;;;;5072636;28;20045;-64
2020/12/08 02:00:42;;;;;;;18.58;11.73;;;0.80;99.90;;;;;;5072690;28;20055;-64
2020/12/08 02:03:09;;;;;;;19.83;12.25;;;0.70;99.90;;;;;;5069310;28;20053;-64
2020/12/08 02:05:36;;;;;;;16.48;11.40;;;0.80;99.90;;;;;;5070110;28;20052;-64
2020/12/08 02:08:03;;;;;;;20.25;11.93;;;0.80;99.90;;;;;;5058612;28;20053;-64
2020/12/08 02:10:30;;;;;;;22.60;11.60;;;0.80;99.90;;;;;;5052732;28;20068;-64
2020/12/08 02:12:59;;;;;;;19.33;11.52;;;0.80;99.90;;;;;;5052674;28;20490;-64
2020/12/08 02:15:30;;;;;;;18.45;11.32;;;0.80;99.90;;;;;;5066130;28;20048;-64
2020/12/08 02:17:57;;;;;;;;;;;0.80;99.90;;;;;;5072872;28;20076;-64
2020/12/08 02:20:25;;;;;;;19.40;11.55;;;0.90;99.90;;;;;;5071987;28;19924;-64
2020/12/08 02:22:53;;;;;;;18.92;11.73;;;0.80;99.90;;;;;;5072492;28;20088;-64
2020/12/08 02:25:20;;;;;;;18.05;11.65;;;0.80;99.90;;;;;;5071764;28;20408;-64
2020/12/08 02:27:47;;;;;;;19.23;11.75;;;0.70;99.90;;;;;;5071382;28;20048;-64
2020/12/08 02:30:13;;;;;;;16.85;10.82;;;0.70;99.90;;;;;;5061088;28;20053;-64
2020/12/08 02:32:40;;;;;;;18.23;10.40;;;0.60;99.90;;;;;;5072378;28;20075;-64
2020/12/08 02:35:08;;;;;;;17.70;11.00;;;0.60;99.90;;;;;;5072139;28;20098;-65
2020/12/08 02:37:36;;;;;;;15.70;10.00;;;0.60;99.90;;;;;;5072326;28;20056;-65
2020/12/08 02:40:03;;;;;;;16.02;9.82;;;0.60;99.90;;;;;;5072100;28;20045;-65
2020/12/08 02:42:32;;;;;;;17.25;10.13;;;0.50;99.90;;;;;;5070701;28;20052;-65
2020/12/08 02:44:59;;;;;;;20.27;10.82;;;0.40;99.90;;;;;;5069107;28;20056;-64
2020/12/08 02:47:25;;;;;;;18.20;10.48;;;0.40;99.90;;;;;;5072256;28;20492;-64
2020/12/08 02:49:54;;;;;;;18.83;11.10;;;0.40;99.90;;;;;;5072057;28;20442;-64
2020/12/08 02:52:21;;;;;;;16.52;10.35;;;0.40;99.90;;;;;;5072007;28;20048;-64
2020/12/08 02:54:48;;;;;;;17.45;11.38;;;0.10;99.90;;;;;;5072005;28;20044;-64
2020/12/08 02:57:15;;;;;;;17.08;11.02;;;0.20;99.90;;;;;;5070911;28;20059;-64
2020/12/08 02:59:42;;;;;;;15.38;10.45;;;0.30;99.90;;;;;;5070887;28;20105;-64
2020/12/08 03:02:08;;;;;;;18.05;10.75;;;0.10;99.90;;;;;;5068413;28;20397;-64
2020/12/08 03:04:35;;;;;;;17.17;10.82;;;0.20;99.90;;;;;;5071251;28;20041;-64
2020/12/08 03:07:04;;;;;;;17.67;10.52;;;0.20;99.90;;;;;;5072307;28;20480;-65
2020/12/08 03:09:31;;;;;;;18.30;10.88;;;0.20;99.90;;;;;;5071607;28;20041;-65
2020/12/08 03:12:00;;;;;;;17.58;10.90;;;0.30;99.90;;;;;;5071542;28;20056;-65
2020/12/08 03:14:27;;;;;;;17.38;11.75;;;0.10;99.90;;;;;;5071958;28;20071;-64
2020/12/08 03:16:56;;;;;;;16.20;11.07;;;0.00;99.90;;;;;;5074115;28;20057;-64
2020/12/08 03:19:22;;;;;;;19.10;11.23;;;0.10;99.90;;;;;;5073686;28;20045;-64
2020/12/08 03:21:49;;;;;;;17.80;10.85;;;0.10;99.90;;;;;;5075361;28;20106;-64
2020/12/08 03:24:16;;;;;;;19.75;11.77;;;0.10;99.90;;;;;;5075198;28;20048;-64
2020/12/08 03:26:42;;;;;;;19.63;11.15;;;0.20;99.90;;;;;;5075722;28;20404;-64
2020/12/08 03:29:10;;;;;;;19.15;11.00;;;0.20;99.90;;;;;;5088558;28;20052;-64
2020/12/08 03:31:36;;;;;;;20.52;11.65;;;0.10;99.90;;;;;;5078915;28;20496;-64
2020/12/08 03:34:03;;;;;;;17.75;10.60;;;0.20;99.90;;;;;;5074961;28;20473;-64
2020/12/08 03:36:32;;;;;;;18.75;11.15;;;0.10;99.90;;;;;;5075144;28;20059;-64
2020/12/08 03:39:00;;;;;;;16.40;10.27;;;0.10;99.90;;;;;;5075103;28;20086;-64
2020/12/08 03:41:27;;;;;;;19.27;11.20;;;0.00;99.90;;;;;;5075114;28;20123;-64
2020/12/08 03:43:53;;;;;;;19.40;11.00;;;0.10;99.90;;;;;;5072043;28;20044;-64
2020/12/08 03:46:22;;;;;;;19.98;11.80;;;0.10;99.90;;;;;;5072395;28;20463;-64
2020/12/08 03:48:49;;;;;;;20.50;11.77;;;0.10;99.90;;;;;;5074634;28;20102;-64
2020/12/08 03:51:17;;;;;;;20.15;12.23;;;0.20;99.90;;;;;;5074824;28;20477;-64
2020/12/08 03:53:44;;;;;;;20.08;12.18;;;0.20;99.90;;;;;;5074934;28;20110;-64
2020/12/08 03:56:11;;;;;;;19.20;11.75;;;0.30;99.90;;;;;;5075079;28;20053;-64
2020/12/08 03:58:41;;;;;;;22.38;12.52;;;0.40;99.90;;;;;;5074983;28;20072;-64
2020/12/08 04:01:13;;;;;;;20.95;13.05;;;0.50;99.90;;;;;;5073678;28;20132;-64
2020/12/08 04:03:41;;;;;;;23.05;12.00;;;0.60;99.90;;;;;;5061554;28;20061;-64
2020/12/08 04:06:07;;;;;;;23.90;13.30;;;0.70;99.90;;;;;;5069966;28;20059;-64
2020/12/08 04:08:34;;;;;;;21.95;12.93;;;0.80;99.90;;;;;;5074143;28;20551;-64
2020/12/08 04:11:01;;;;;;;19.58;12.30;;;1.00;99.90;;;;;;5074444;28;20059;-64
2020/12/08 04:13:28;;;;;;;23.58;13.07;;;1.00;99.90;;;;;;5073934;28;20041;-64
2020/12/08 04:15:55;;;;;;;23.70;13.15;;;1.10;99.90;;;;;;5074695;28;20064;-64
2020/12/08 04:18:21;;;;;;;20.55;12.38;;;1.20;99.90;;;;;;5061775;28;20060;-63
2020/12/08 04:20:49;;;;;;;21.90;13.02;;;1.30;99.90;;;;;;5072114;28;20055;-63
2020/12/08 04:23:17;;;;;;;21.92;12.52;;;1.40;99.90;;;;;;5073919;28;20044;-64
2020/12/08 04:25:43;;;;;;;20.80;12.50;;;1.50;99.90;;;;;;5074200;28;20416;-64
2020/12/08 04:28:10;;;;;;;21.58;12.50;;;1.40;99.90;;;;;;5073711;28;20485;-65
2020/12/08 04:30:37;;;;;;;20.13;12.75;;;1.60;99.90;;;;;;5074076;28;20114;-64
2020/12/08 04:33:04;;;;;;;25.13;13.32;;;1.50;99.90;;;;;;5067692;28;20498;-64
2020/12/08 04:35:30;;;;;;;25.83;14.85;;;1.60;99.90;;;;;;5072821;28;20055;-64
2020/12/08 04:37:58;;;;;;;23.20;13.20;;;1.70;99.90;;;;;;5073820;28;20505;-64
2020/12/08 04:40:25;;;;;;;23.95;13.88;;;1.70;99.90;;;;;;5074087;28;20056;-64
2020/12/08 04:42:54;;;;;;;23.05;13.02;;;1.80;99.90;;;;;;5073628;28;20044;-64
2020/12/08 04:45:22;;;;;;;21.13;12.45;;;1.80;99.90;;;;;;5073435;28;20489;-64
2020/12/08 04:47:50;;;;;;;20.92;12.95;;;1.90;99.90;;;;;;5073375;28;20058;-64
2020/12/08 04:50:19;;;;;;;21.73;13.68;;;1.90;99.90;;;;;;5073431;28;20606;-64
2020/12/08 04:52:50;;;;;;;21.48;13.23;;;2.00;99.90;;;;;;5073475;28;20168;-64
2020/12/08 04:55:19;;;;;;;20.65;12.52;;;1.90;99.90;;;;;;5073955;28;20083;-63
2020/12/08 04:57:47;;;;;;;20.03;13.33;;;1.90;99.90;;;;;;5073837;28;20056;-63
2020/12/08 05:00:14;;;;;;;20.98;12.77;;;1.90;99.90;;;;;;5073554;28;20535;-63
2020/12/08 05:02:47;;;;;;;22.98;13.13;;;1.90;99.90;;;;;;5071901;28;20218;-63
2020/12/08 05:05:15;;;;;;;22.67;13.82;;;2.00;99.90;;;;;;5073123;28;20048;-63
2020/12/08 05:07:42;;;;;;;23.48;14.27;;;1.80;99.90;;;;;;5073352;28;20052;-63
2020/12/08 05:10:10;;;;;;;21.90;13.75;;;1.60;99.90;;;;;;5072819;28;20049;-63
2020/12/08 05:12:38;;;;;;;24.77;14.35;;;1.70;99.90;;;;;;5073092;28;20048;-63
2020/12/08 05:15:05;;;;;;;24.75;14.63;;;1.70;99.90;;;;;;5073075;28;20382;-63
2020/12/08 05:17:31;;;;;;;23.80;14.60;;;1.90;99.90;;;;;;5065398;28;20041;-62
2020/12/08 05:20:03;;;;;;;23.20;14.45;;;2.00;99.90;;;;;;5053656;28;20044;-63
2020/12/08 05:22:30;;;;;;;20.67;13.95;;;1.80;99.90;;;;;;5061614;28;20045;-63
2020/12/08 05:25:07;;;;;;;23.13;14.35;;;2.00;99.90;;;;;;5072708;28;20048;-62
2020/12/08 05:27:34;;;;;;;20.13;13.20;;;2.00;99.90;;;;;;5073366;28;20045;-62
2020/12/08 05:30:08;;;;;;;22.25;13.35;;;2.20;99.90;;;;;;5072536;28;20044;-61
2020/12/08 05:32:36;;;;;;;23.67;14.25;;;2.40;99.90;;;;;;5071319;28;20239;-62
2020/12/08 05:35:06;;;;;;;26.95;15.02;;;2.50;99.90;;;;;;5072255;28;20071;-62
2020/12/08 05:37:37;;;;;;;22.85;14.45;;;2.50;99.90;;;;;;5072606;28;20044;-63
2020/12/08 05:40:08;;;;;;;22.98;15.13;;;2.60;99.90;;;;;;5071073;28;20044;-63
2020/12/08 05:42:38;;;;;;;24.75;14.48;;;2.60;99.90;;;;;;5072868;28;20064;-62
2020/12/08 05:45:07;;;;;;;25.23;13.52;;;2.60;99.90;;;;;;5072579;28;20098;-62
2020/12/08 05:47:50;;;;;;;24.63;15.02;;;2.60;99.90;;;;;;5072244;28;20505;-63
2020/12/08 05:50:18;;;;;;;22.90;13.88;;;2.50;99.90;;;;;;5072721;28;20052;-62
2020/12/08 05:52:49;;;;;;;24.63;15.13;;;2.60;99.90;;;;;;5072793;28;20098;-62
2020/12/08 05:55:17;;;;;;;21.73;13.25;;;2.70;99.90;;;;;;5071643;28;20052;-62
2020/12/08 05:57:45;;;;;;;23.33;14.70;;;2.70;99.90;;;;;;5072654;28;20052;-62
2020/12/08 06:00:23;;;;;;;22.17;14.13;;;2.70;99.90;;;;;;5071539;28;20118;-62
2020/12/08 06:02:51;;;;;;;24.92;14.18;;;2.70;99.90;;;;;;5052442;28;20355;-62
2020/12/08 06:05:34;;;;;;;23.27;14.57;;;2.70;99.90;;;;;;5061270;28;20048;-62
2020/12/08 06:08:12;;;;;;;25.45;15.10;;;2.70;99.90;;;;;;5072639;28;20455;-62
2020/12/08 06:10:46;;;;;;;22.30;13.90;;;2.70;99.90;;;;;;5072112;28;20051;-63
2020/12/08 06:13:23;;;;;;;23.42;14.48;;;2.70;99.90;;;;;;5075794;28;20056;-62
2020/12/08 06:15:51;;;;;;;21.55;13.75;;;2.70;99.90;;;;;;5076663;28;20044;-63
2020/12/08 06:18:28;;;;;;;21.25;13.43;;;2.70;99.90;;;;;;5092646;28;20121;-61
2020/12/08 06:20:55;;;;;;;24.35;14.88;;;2.40;99.90;;;;;;5092676;28;20052;-63
2020/12/08 06:23:22;;;;;;;26.92;15.10;;;2.50;99.90;;;;;;5089529;28;20055;-62
2020/12/08 06:25:56;;;;;;;23.90;15.20;;;2.70;99.90;;;;;;5067448;28;20044;-63
2020/12/08 06:28:23;;;;;;;23.33;14.77;;;2.70;99.90;;;;;;5052553;28;20068;-62
2020/12/08 06:31:00;;;;;;;25.55;15.30;;;2.70;99.90;;;;;;5064009;28;20150;-63
2020/12/08 06:33:27;;;;;;;25.95;15.25;;;2.80;99.90;;;;;;5071085;28;20132;-63
2020/12/08 06:35:58;;;;;;;23.58;14.98;;;2.90;99.90;;;;;;5071651;28;20456;-63
2020/12/08 06:38:25;;;;;;;19.70;13.13;;;2.60;99.90;;;;;;5071734;28;20057;-63
2020/12/08 06:40:53;;;;;;;22.35;14.25;;;2.20;99.90;;;;;;5071997;28;20508;-62
2020/12/08 06:43:21;;;;;;;21.85;14.23;;;2.00;99.90;;;;;;5072176;28;20048;-63
2020/12/08 06:45:48;;;;;;;24.90;14.32;;;2.00;99.90;;;;;;5072478;28;20055;-63
2020/12/08 06:48:22;;;;;;;21.33;13.50;;;2.20;99.90;;;;;;5059851;28;20409;-63
2020/12/08 06:50:49;;;;;;;23.98;14.35;;;2.50;99.90;;;;;;5052962;28;20049;-63
2020/12/08 06:53:16;;;;;;;25.52;15.25;;;2.60;99.90;;;;;;5056391;28;20083;-63
2020/12/08 06:55:44;;;;;;;26.63;15.02;;;2.70;99.90;;;;;;5072239;28;20037;-63
2020/12/08 06:58:10;;;;;;;29.20;15.10;;;2.80;99.90;;;;;;5076105;28;20059;-63
2020/12/08 07:00:38;;;;;;;23.25;14.80;;;2.80;99.90;;;;;;5075600;28;20405;-63
2020/12/08 07:03:07;;;;;;;25.45;15.05;;;2.90;99.90;;;;;;5074091;28;20052;-63
2020/12/08 07:05:38;;;;;;;26.33;15.43;;;2.90;99.90;;;;;;5058976;28;20474;-63
2020/12/08 07:08:06;;;;;;;23.52;14.90;;;3.00;99.90;;;;;;5075193;28;20067;-63
2020/12/08 07:10:37;;;;;;;26.13;15.35;;;2.90;99.90;;;;;;5073704;28;20389;-63
2020/12/08 07:13:11;;;;;;;26.35;15.18;;;2.70;99.90;;;;;;5065897;28;20496;-63
2020/12/08 07:15:37;;;;;;;24.00;14.75;;;2.50;99.90;;;;;;5075263;28;20055;-63
2020/12/08 07:18:05;;;;;;;22.58;15.00;;;2.70;99.90;;;;;;5075559;28;20051;-63
2020/12/08 07:20:33;;;;;;;23.23;14.63;;;2.80;99.90;;;;;;5075264;28;20052;-63
2020/12/08 07:23:03;;;;;;;24.33;15.20;;;2.90;99.90;;;;;;5064142;28;20056;-63
2020/12/08 07:25:31;;;;;;;23.90;15.05;;;3.00;99.90;;;;;;5059373;28;20044;-64
2020/12/08 07:27:58;;;;;;;22.67;14.20;;;3.00;99.90;;;;;;5055103;28;20103;-64
2020/12/08 07:30:26;;;;;;;24.58;15.52;;;3.10;99.90;;;;;;5073693;28;20048;-63
2020/12/08 07:32:54;;;;;;;24.95;15.55;;;3.20;99.90;;;;;;5075242;28;20056;-64
2020/12/08 07:35:23;;;;;;;23.33;15.25;;;3.20;99.90;;;;;;5062484;28;20052;-64
2020/12/08 07:37:52;;;;;;;24.67;15.50;;;3.20;99.90;;;;;;5068339;28;20055;-64
2020/12/08 07:40:20;;;;;;;23.45;14.93;;;3.20;99.90;;;;;;5075249;28;20052;-64
2020/12/08 07:42:51;;;;;;;21.98;14.35;;;3.20;99.90;;;;;;5063325;28;20041;-64
2020/12/08 07:45:18;;;;;;;23.77;14.80;;;3.30;99.90;;;;;;5055301;28;20049;-64
2020/12/08 07:47:46;;;;;;;24.48;15.18;;;3.30;99.90;;;;;;5073547;28;20539;-64
2020/12/08 07:50:23;;;;;;;24.48;15.32;;;3.30;99.90;;;;;;5074087;28;20048;-64
2020/12/08 07:53:01;;;;;;;26.83;16.05;;;3.40;99.90;;;;;;5065829;28;20456;-64
2020/12/08 07:55:29;;;;;;;21.98;14.52;;;3.30;99.90;;;;;;5076520;28;20094;-64
2020/12/08 07:57:56;;;;;;;24.23;15.43;;;3.30;99.90;;;;;;5055605;28;20414;-65
2020/12/08 08:00:23;;;;;;;24.38;15.55;;;3.30;99.90;;;;;;5054734;28;20474;-65
2020/12/08 08:02:50;;;;;;;25.80;15.95;;;3.40;99.90;;;;;;5054748;28;20060;-65
2020/12/08 08:05:17;;;;;;;22.38;14.93;;;3.50;99.90;;;;;;5073479;28;20468;-65
2020/12/08 08:07:43;;;;;;;22.80;15.45;;;3.60;99.90;;;;;;5071260;28;20460;-65
2020/12/08 08:10:10;;;;;;;22.70;14.48;;;3.60;99.90;;;;;;5067015;28;20049;-65
2020/12/08 08:12:38;;;;;;;23.38;15.40;;;3.40;99.90;;;;;;5073221;28;20051;-65
2020/12/08 08:15:07;;;;;;;22.00;14.65;;;3.40;99.90;;;;;;5059023;28;20115;-65
2020/12/08 08:17:34;;;;;;;22.80;15.07;;;3.30;99.90;;;;;;5062212;28;20040;-65
2020/12/08 08:20:01;;;;;;;25.60;15.38;;;3.50;99.90;;;;;;5070730;28;20055;-65
2020/12/08 08:22:27;;;;;;;21.38;15.20;;;3.70;99.90;;;;;;5072181;28;20094;-65
2020/12/08 08:24:54;;;;;;;23.45;15.38;;;3.70;99.90;;;;;;5067436;28;20563;-65
2020/12/08 08:27:21;;;;;;;22.80;14.65;;;3.70;99.90;;;;;;5064573;28;20485;-65
2020/12/08 08:29:48;;;;;;;22.17;14.20;;;3.90;99.90;;;;;;5070358;28;20048;-65
2020/12/08 08:32:15;;;;;;;23.52;14.95;;;3.70;99.90;;;;;;5070689;28;20060;-65
2020/12/08 08:34:42;;;;;;;22.33;15.23;;;3.80;99.90;;;;;;5072203;28;20113;-65
2020/12/08 08:37:11;;;;;;;25.75;16.77;;;3.70;99.90;;;;;;5066830;28;20516;-65
2020/12/08 08:39:37;;;;;;;24.27;15.90;;;3.90;99.90;;;;;;5069753;28;20477;-65
2020/12/08 08:42:04;;;;;;;21.88;15.00;;;3.90;99.90;;;;;;5068004;28;20097;-65
2020/12/08 08:44:31;;;;;;;22.70;14.77;;;3.90;99.90;;;;;;5072109;28;20049;-65
2020/12/08 08:46:58;;;;;;;21.00;14.07;;;4.00;99.90;;;;;;5071515;28;20052;-65
2020/12/08 08:49:25;;;;;;;22.98;15.38;;;4.10;99.90;;;;;;5072560;28;20059;-65
2020/12/08 08:51:51;;;;;;;23.88;15.82;;;4.10;99.90;;;;;;5071023;28;20143;-65
2020/12/08 08:54:18;;;;;;;22.40;15.48;;;4.10;99.90;;;;;;5064200;28;20122;-65
2020/12/08 08:56:45;;;;;;;23.00;15.25;;;4.10;99.90;;;;;;5068150;28;20544;-65
2020/12/08 08:59:12;;;;;;;23.15;15.45;;;3.80;99.90;;;;;;5058724;28;20115;-65
2020/12/08 09:01:38;;;;;;;23.45;15.75;;;3.70;99.90;;;;;;5052738;28;20095;-65
2020/12/08 09:04:06;;;;;;;21.85;14.95;;;3.80;99.90;;;;;;5064921;28;20077;-65
2020/12/08 09:06:33;;;;;;;22.58;15.23;;;4.10;99.90;;;;;;5070276;28;20045;-65
2020/12/08 09:09:00;;;;;;;23.35;15.25;;;4.10;99.90;;;;;;5061518;28;20048;-65
2020/12/08 09:11:27;;;;;;;22.85;15.38;;;4.20;99.90;;;;;;5056245;28;20489;-65
2020/12/08 09:13:54;;;;;;;22.98;14.73;;;4.30;99.90;;;;;;5067530;28;20048;-65
2020/12/08 09:16:22;;;;;;;22.45;14.90;;;3.90;99.90;;;;;;5072037;28;20049;-65
2020/12/08 09:18:49;;;;;;;23.70;15.70;;;3.80;99.90;;;;;;5064600;28;20052;-65
2020/12/08 09:21:18;;;;;;;21.20;15.70;;;3.70;99.90;;;;;;5067387;28;20068;-65
2020/12/08 09:23:45;;;;;;;23.08;15.43;;;3.70;99.90;;;;;;5066563;28;20052;-65
2020/12/08 09:26:12;;;;;;;25.65;16.92;;;3.80;99.90;;;;;;5070366;28;20076;-65
2020/12/08 09:28:38;;;;;;;22.80;15.82;;;4.00;99.90;;;;;;5066312;28;20052;-65
2020/12/08 09:31:05;;;;;;;24.67;16.95;;;4.20;99.90;;;;;;5069413;28;20056;-65
2020/12/08 09:33:31;;;;;;;23.98;15.73;;;4.10;99.90;;;;;;5056806;28;20048;-65
2020/12/08 09:35:58;;;;;;;23.33;16.15;;;4.20;99.90;;;;;;5059877;28;20056;-65
2020/12/08 09:38:26;;;;;;;24.00;15.90;;;4.30;99.90;;;;;;5052759;28;20132;-65
2020/12/08 09:40:52;;;;;;;23.88;16.02;;;4.40;99.90;;;;;;5069122;28;20049;-65
2020/12/08 09:43:19;;;;;;;22.63;15.00;;;4.30;99.90;;;;;;5058603;28;20080;-65
2020/12/08 09:45:45;;;;;;;21.40;15.40;;;4.30;99.90;;;;;;5065369;28;20045;-65
2020/12/08 09:48:12;;;;;;;23.27;14.48;;;4.10;99.90;;;;;;5069287;28;20094;-65
2020/12/08 09:50:39;;;;;;;18.55;13.88;;;4.10;99.90;;;;;;5063874;28;20098;-65
2020/12/08 09:53:06;;;;;;;21.60;14.90;;;3.80;99.90;;;;;;5066062;28;20056;-65
2020/12/08 09:55:33;;;;;;;21.33;14.68;;;3.70;99.90;;;;;;5069237;28;20466;-65
2020/12/08 09:58:00;;;;;;;24.50;15.52;;;3.90;99.90;;;;;;5059558;28;20537;-65
2020/12/08 10:00:26;;;;;;;25.67;16.38;;;4.10;99.90;;;;;;5062213;28;20052;-65
2020/12/08 10:02:53;;;;;;;22.08;15.50;;;4.30;99.90;;;;;;5053284;28;20088;-65
2020/12/08 10:05:20;;;;;;;23.15;16.02;;;4.50;99.90;;;;;;5072402;28;20048;-65
2020/12/08 10:07:47;;;;;;;21.20;14.93;;;4.50;99.90;;;;;;5061674;28;20136;-65
2020/12/08 10:10:13;;;;;;;22.27;15.20;;;4.40;99.90;;;;;;5061060;28;20081;-65
2020/12/08 10:12:41;;;;;;;19.95;13.65;;;4.50;99.90;;;;;;5060537;28;20106;-65
2020/12/08 10:15:07;;;;;;;21.98;14.05;;;4.60;99.90;;;;;;5071955;28;20083;-65
2020/12/08 10:17:33;;;;;;;19.92;14.00;;;4.50;99.90;;;;;;5068108;28;22059;-65
2020/12/08 10:20:00;;;;;;;21.85;15.25;;;4.40;99.90;;;;;;5062434;28;20056;-65
2020/12/08 10:22:27;;;;;;;22.67;15.05;;;4.40;99.90;;;;;;5071431;28;20049;-65
2020/12/08 10:24:53;;;;;;;21.88;15.20;;;4.40;99.90;;;;;;5064330;28;20052;-65
2020/12/08 10:27:20;;;;;;;22.30;15.07;;;4.40;99.90;;;;;;5055353;28;20084;-65
2020/12/08 10:29:47;;;;;;;22.48;15.02;;;4.60;99.90;;;;;;5064357;28;20474;-65
2020/12/08 10:32:14;;;;;;;24.20;15.07;;;4.70;99.90;;;;;;5076241;28;20048;-65
2020/12/08 10:34:41;;;;;;;21.88;14.80;;;5.00;99.90;;;;;;5068906;28;20098;-65
2020/12/08 10:37:07;;;;;;;23.30;15.80;;;4.90;99.90;;;;;;5066886;28;20045;-65
2020/12/08 10:39:34;;;;;;;23.10;15.60;;;4.80;99.90;;;;;;5074840;28;20080;-65
2020/12/08 10:42:00;;;;;;;24.52;15.55;;;4.80;99.90;;;;;;5074509;28;20178;-65
2020/12/08 10:44:27;;;;;;;25.23;16.83;;;4.80;99.90;;;;;;5072430;28;20052;-65
2020/12/08 10:46:55;;;;;;;21.70;16.50;;;5.00;99.90;;;;;;5073731;28;20057;-65
2020/12/08 10:49:22;;;;;;;21.63;16.20;;;5.20;99.90;;;;;;5059327;28;20059;-65
2020/12/08 10:51:51;;;;;;;20.52;15.63;;;5.20;99.90;;;;;;5061491;28;20064;-65
2020/12/08 10:54:18;;;;;;;25.67;17.50;;;5.00;99.90;;;;;;5072399;28;20103;-65
2020/12/08 10:56:44;;;;;;;24.90;18.20;;;5.10;99.90;;;;;;5068198;28;20084;-65
2020/12/08 10:59:11;;;;;;;22.10;16.85;;;5.30;99.90;;;;;;5058841;28;20482;-65
2020/12/08 11:01:38;;;;;;;26.77;18.33;;;5.40;99.90;;;;;;5061816;28;20045;-65
2020/12/08 11:04:05;;;;;;;27.60;18.83;;;5.40;99.90;;;;;;5063091;28;20064;-65
2020/12/08 11:06:32;;;;;;;23.30;16.98;;;5.40;99.90;;;;;;5073589;28;20491;-65
2020/12/08 11:08:58;;;;;;;23.85;16.92;;;5.50;99.90;;;;;;5069203;28;20079;-65
2020/12/08 11:11:27;;;;;;;26.35;17.48;;;5.60;99.90;;;;;;5068938;28;20513;-65
2020/12/08 11:13:54;;;;;;;23.60;17.23;;;5.60;99.90;;;;;;5073260;28;20135;-65
2020/12/08 11:16:22;;;;;;;23.55;15.82;;;5.70;99.90;;;;;;5054972;28;20132;-65
2020/12/08 11:18:49;;;;;;;21.83;16.67;;;5.70;99.90;;;;;;5057048;28;20422;-65
2020/12/08 11:21:23;;;;;;;23.75;16.67;;;5.80;99.90;;;;;;5064452;28;20110;-65
2020/12/08 11:23:53;;;;;;;24.55;17.23;;;5.70;99.90;;;;;;5079819;28;20484;-65
2020/12/08 11:26:20;;;;;;;21.48;15.43;;;5.80;99.90;;;;;;5085119;28;20047;-65
2020/12/08 11:28:46;;;;;;;23.83;16.67;;;5.80;99.90;;;;;;5072250;28;20502;-65
2020/12/08 11:31:16;;;;;;;25.00;17.15;;;5.90;99.90;;;;;;5055553;28;20049;-65
2020/12/08 11:33:43;;;;;;;21.67;16.95;;;5.80;99.90;;;;;;5055641;28;20049;-65
2020/12/08 11:36:09;;;;;;;23.85;17.20;;;5.70;99.90;;;;;;5055155;28;20052;-65
2020/12/08 11:38:37;;;;;;;24.67;17.90;;;5.40;99.90;;;;;;5054816;28;20111;-65
2020/12/08 11:41:04;;;;;;;26.27;18.38;;;5.50;99.90;;;;;;5072796;28;20052;-65
2020/12/08 11:43:31;;;;;;;24.60;18.05;;;5.60;99.90;;;;;;5072397;28;20106;-65
2020/12/08 11:45:57;;;;;;;28.08;18.85;;;5.60;99.90;;;;;;5057884;28;20063;-65
2020/12/08 11:48:25;;;;;;;30.23;20.42;;;5.60;99.90;;;;;;5058292;28;20049;-65
2020/12/08 11:50:54;;;;;;;23.65;17.52;;;5.70;99.90;;;;;;5071943;28;20448;-64
2020/12/08 11:53:22;;;;;;;23.95;18.45;;;5.80;99.90;;;;;;5070809;28;20052;-64
2020/12/08 11:55:50;;;;;;;26.60;19.90;;;5.70;99.90;;;;;;5074455;28;20076;-65
2020/12/08 11:58:16;;;;;;;26.73;21.58;;;5.90;99.90;;;;;;5074645;28;20095;-64
2020/12/08 12:00:43;;;;;;;48.80;34.55;;;6.00;99.90;;;;;;5074234;28;20056;-64
2020/12/08 12:03:09;;;;;;;32.67;23.30;;;5.90;99.90;;;;;;5074380;28;20044;-64
2020/12/08 12:05:37;;;;;;;28.77;20.65;;;6.00;99.90;;;;;;5079552;28;20053;-64
2020/12/08 12:08:04;;;;;;;28.50;19.42;;;6.00;99.90;;;;;;5071243;28;20144;-65
2020/12/08 12:10:31;;;;;;;30.30;20.88;;;6.10;99.90;;;;;;5069670;28;20067;-65
2020/12/08 12:12:58;;;;;;;27.92;19.45;;;6.10;99.90;;;;;;5055686;28;20049;-65
2020/12/08 12:15:25;;;;;;;24.02;17.23;;;6.30;99.90;;;;;;5073879;28;20422;-65
2020/12/08 12:17:51;;;;;;;31.85;22.15;;;6.40;99.90;;;;;;5073921;28;20098;-65
2020/12/08 12:20:18;;;;;;;34.55;24.88;;;6.50;99.90;;;;;;5073850;28;20052;-65
2020/12/08 12:22:47;;;;;;;29.13;20.98;;;6.50;99.90;;;;;;5072267;28;20060;-65
2020/12/08 12:25:14;;;;;;;31.43;21.93;;;6.60;99.90;;;;;;5078071;28;20044;-64
2020/12/08 12:27:41;;;;;;;28.38;21.83;;;6.60;99.90;;;;;;5074916;28;20989;-65
2020/12/08 12:30:09;;;;;;;27.25;21.35;;;6.60;99.90;;;;;;5077263;28;20078;-65
2020/12/08 12:32:35;;;;;;;24.65;18.73;;;6.70;99.90;;;;;;5073928;28;20098;-65
2020/12/08 12:35:02;;;;;;;27.98;20.05;;;6.80;99.90;;;;;;5073641;28;20409;-65
2020/12/08 12:37:31;;;;;;;27.08;18.95;;;6.90;99.90;;;;;;5072571;28;20067;-65
2020/12/08 12:39:58;;;;;;;26.17;21.30;;;7.00;99.90;;;;;;5073962;28;20063;-65